createdAt,value
2018-11-21T00:00:36.765Z,951.30
2018-11-21T00:03:03.083Z,951.37
2018-11-21T00:05:29.410Z,951.46
2018-11-21T00:07:55.761Z,951.28
2018-11-21T00:10:22.071Z,951.22
2018-11-21T00:12:48.389Z,951.13
2018-11-21T00:15:14.705Z,951.19
2018-11-21T00:17:41.049Z,951.21
2018-11-21T00:20:07.373Z,951.21
2018-11-21T00:22:33.709Z,951.16
2018-11-21T00:25:00.038Z,951.12
2018-11-21T00:27:26.344Z,951.07
2018-11-21T00:29:52.645Z,950.95
2018-11-21T00:32:18.947Z,951.01
2018-11-21T00:34:45.284Z,951.01
2018-11-21T00:37:11.588Z,950.97
2018-11-21T00:39:37.906Z,950.79
2018-11-21T00:42:04.229Z,950.75
2018-11-21T00:44:30.541Z,950.74
2018-11-21T00:46:56.856Z,950.79
2018-11-21T00:49:23.162Z,950.74
2018-11-21T00:51:49.498Z,950.64
2018-11-21T00:54:15.809Z,950.66
2018-11-21T00:56:42.151Z,950.64
2018-11-21T00:59:08.473Z,950.70
2018-11-21T01:01:34.783Z,950.52
2018-11-21T01:04:01.104Z,950.56
2018-11-21T01:06:27.412Z,950.54
2018-11-21T01:08:53.743Z,950.49
2018-11-21T01:11:20.069Z,950.45
2018-11-21T01:13:46.402Z,950.46
2018-11-21T01:16:12.743Z,950.32
2018-11-21T01:18:39.105Z,950.16
2018-11-21T01:21:05.411Z,950.15
2018-11-21T01:23:31.790Z,950.29
2018-11-21T01:25:58.174Z,950.37
2018-11-21T01:28:24.580Z,950.25
2018-11-21T01:30:50.891Z,950.31
2018-11-21T01:33:17.268Z,950.28
2018-11-21T01:35:43.576Z,950.26
2018-11-21T01:38:09.927Z,950.31
2018-11-21T01:40:36.249Z,950.22
2018-11-21T01:43:02.609Z,950.09
2018-11-21T01:45:28.940Z,950.23
2018-11-21T01:47:55.438Z,950.11
2018-11-21T01:50:21.810Z,950.24
2018-11-21T01:52:48.091Z,950.37
2018-11-21T01:55:14.444Z,950.46
2018-11-21T01:57:40.763Z,950.37
2018-11-21T02:00:07.131Z,950.45
2018-11-21T02:02:37.479Z,950.49
2018-11-21T02:05:03.805Z,950.40
2018-11-21T02:07:30.136Z,950.33
2018-11-21T02:09:56.453Z,950.39
2018-11-21T02:12:23.135Z,950.43
2018-11-21T02:14:50.157Z,950.47
2018-11-21T02:17:16.467Z,950.32
2018-11-21T02:19:42.779Z,950.24
2018-11-21T02:22:09.128Z,950.20
2018-11-21T02:24:35.442Z,950.25
2018-11-21T02:27:01.765Z,950.24
2018-11-21T02:29:28.089Z,950.10
2018-11-21T02:31:54.408Z,950.06
2018-11-21T02:34:20.711Z,950.10
2018-11-21T02:36:47.048Z,950.07
2018-11-21T02:39:13.343Z,950.12
2018-11-21T02:41:39.660Z,950.13
2018-11-21T02:44:06.044Z,950.09
2018-11-21T02:46:32.300Z,949.90
2018-11-21T02:48:58.663Z,949.81
2018-11-21T02:51:25.007Z,949.82
2018-11-21T02:53:51.348Z,949.75
2018-11-21T02:56:17.646Z,949.81
2018-11-21T02:58:43.974Z,949.67
2018-11-21T03:01:10.312Z,949.71
2018-11-21T03:03:36.644Z,949.62
2018-11-21T03:06:02.948Z,949.64
2018-11-21T03:08:29.256Z,949.52
2018-11-21T03:10:55.590Z,949.41
2018-11-21T03:13:28.120Z,949.37
2018-11-21T03:15:48.222Z,949.42
2018-11-21T03:18:14.551Z,949.31
2018-11-21T03:20:40.888Z,949.13
2018-11-21T03:23:07.195Z,949.10
2018-11-21T03:25:33.514Z,949.13
2018-11-21T03:27:59.828Z,949.18
2018-11-21T03:30:26.183Z,949.27
2018-11-21T03:32:52.481Z,949.18
2018-11-21T03:35:18.838Z,949.15
2018-11-21T03:37:45.184Z,949.10
2018-11-21T03:40:11.515Z,949.22
2018-11-21T03:42:37.825Z,949.17
2018-11-21T03:45:04.183Z,949.14
2018-11-21T03:47:30.499Z,949.18
2018-11-21T03:49:56.818Z,949.08
2018-11-21T03:52:23.174Z,949.05
2018-11-21T03:54:49.486Z,949.06
2018-11-21T03:57:15.838Z,949.01
2018-11-21T03:59:42.145Z,948.97
2018-11-21T04:02:08.525Z,948.96
2018-11-21T04:04:34.837Z,948.88
2018-11-21T04:07:01.201Z,948.75
2018-11-21T04:09:27.494Z,948.87
2018-11-21T04:11:54.586Z,948.94
2018-11-21T04:14:20.138Z,948.92
2018-11-21T04:16:46.466Z,948.82
2018-11-21T04:19:12.820Z,948.87
2018-11-21T04:21:39.152Z,948.92
2018-11-21T04:24:05.459Z,948.79
2018-11-21T04:26:31.768Z,948.74
2018-11-21T04:28:58.102Z,948.75
2018-11-21T04:31:24.442Z,948.77
2018-11-21T04:33:50.744Z,948.74
2018-11-21T04:36:17.055Z,948.66
2018-11-21T04:38:43.433Z,948.66
2018-11-21T04:41:09.792Z,948.67
2018-11-21T04:43:36.118Z,948.64
2018-11-21T04:46:02.445Z,948.61
2018-11-21T04:48:28.801Z,948.63
2018-11-21T04:50:55.133Z,948.54
2018-11-21T04:53:21.433Z,948.60
2018-11-21T04:55:47.736Z,948.58
2018-11-21T04:58:14.043Z,948.55
2018-11-21T05:00:40.380Z,948.55
2018-11-21T05:03:06.677Z,948.51
2018-11-21T05:05:33.024Z,948.54
2018-11-21T05:07:59.364Z,948.56
2018-11-21T05:10:25.679Z,948.59
2018-11-21T05:12:51.988Z,948.63
2018-11-21T05:15:18.314Z,948.56
2018-11-21T05:17:44.620Z,948.56
2018-11-21T05:20:10.925Z,948.53
2018-11-21T05:22:37.255Z,948.58
2018-11-21T05:25:03.585Z,948.55
2018-11-21T05:27:29.928Z,948.60
2018-11-21T05:29:56.259Z,948.56
2018-11-21T05:32:22.585Z,948.52
2018-11-21T05:34:48.918Z,948.57
2018-11-21T05:37:15.242Z,948.56
2018-11-21T05:39:41.572Z,948.48
2018-11-21T05:42:07.956Z,948.41
2018-11-21T05:44:34.230Z,948.44
2018-11-21T05:47:00.635Z,948.44
2018-11-21T05:49:26.896Z,948.45
2018-11-21T05:51:53.198Z,948.48
2018-11-21T05:54:19.559Z,948.44
2018-11-21T05:56:45.956Z,948.48
2018-11-21T05:59:12.229Z,948.41
2018-11-21T06:01:38.565Z,948.45
2018-11-21T06:04:04.894Z,948.37
2018-11-21T06:06:31.201Z,948.44
2018-11-21T06:08:57.523Z,948.43
2018-11-21T06:11:23.871Z,948.43
2018-11-21T06:13:50.200Z,948.46
2018-11-21T06:16:16.519Z,948.43
2018-11-21T06:18:42.843Z,948.37
2018-11-21T06:21:09.146Z,948.55
2018-11-21T06:23:35.475Z,948.52
2018-11-21T06:26:01.776Z,948.54
2018-11-21T06:28:28.106Z,948.63
2018-11-21T06:30:54.416Z,948.56
2018-11-21T06:33:20.737Z,948.59
2018-11-21T06:35:47.069Z,948.60
2018-11-21T06:38:13.403Z,948.61
2018-11-21T06:40:39.732Z,948.61
2018-11-21T06:43:06.049Z,948.69
2018-11-21T06:45:32.395Z,948.65
2018-11-21T06:47:58.712Z,948.63
2018-11-21T06:50:25.061Z,948.64
2018-11-21T06:52:51.421Z,948.65
2018-11-21T06:55:17.743Z,948.70
2018-11-21T06:57:44.060Z,948.76
2018-11-21T07:00:10.431Z,948.71
2018-11-21T07:02:36.743Z,948.75
2018-11-21T07:05:03.091Z,948.76
2018-11-21T07:07:29.436Z,948.69
2018-11-21T07:09:55.777Z,948.56
2018-11-21T07:12:22.100Z,948.61
2018-11-21T07:14:48.453Z,948.54
2018-11-21T07:17:14.774Z,948.62
2018-11-21T07:19:41.050Z,948.69
2018-11-21T07:22:07.389Z,948.60
2018-11-21T07:24:33.712Z,948.65
2018-11-21T07:27:00.039Z,948.65
2018-11-21T07:29:26.489Z,948.68
2018-11-21T07:31:52.815Z,948.63
2018-11-21T07:34:19.147Z,948.71
2018-11-21T07:36:45.505Z,948.76
2018-11-21T07:39:11.828Z,948.71
2018-11-21T07:41:38.154Z,948.68
2018-11-21T07:44:04.498Z,948.67
2018-11-21T07:46:30.829Z,948.67
2018-11-21T07:48:57.166Z,948.77
2018-11-21T07:51:23.526Z,948.84
2018-11-21T07:53:49.868Z,948.75
2018-11-21T07:56:16.295Z,948.84
2018-11-21T07:58:42.606Z,948.91
2018-11-21T08:01:08.951Z,948.87
2018-11-21T08:03:35.257Z,948.94
2018-11-21T08:06:01.637Z,948.93
2018-11-21T08:08:27.992Z,948.91
2018-11-21T08:10:54.317Z,948.93
2018-11-21T08:13:20.673Z,948.95
2018-11-21T08:15:46.986Z,949.01
2018-11-21T08:18:13.368Z,949.07
2018-11-21T08:20:39.660Z,949.04
2018-11-21T08:23:05.982Z,949.00
2018-11-21T08:25:32.318Z,949.09
2018-11-21T08:27:58.645Z,949.02
2018-11-21T08:30:24.999Z,949.01
2018-11-21T08:32:51.311Z,949.09
2018-11-21T08:35:17.625Z,949.05
2018-11-21T08:37:43.963Z,948.97
2018-11-21T08:40:10.292Z,948.98
2018-11-21T08:42:36.630Z,949.05
2018-11-21T08:45:02.964Z,949.01
2018-11-21T08:47:29.311Z,948.94
2018-11-21T08:49:55.650Z,948.96
2018-11-21T08:52:21.980Z,948.96
2018-11-21T08:54:48.283Z,949.04
2018-11-21T08:57:14.615Z,948.99
2018-11-21T08:59:40.922Z,948.99
2018-11-21T09:02:07.246Z,948.94
2018-11-21T09:04:33.549Z,948.93
2018-11-21T09:07:00.220Z,948.94
2018-11-21T09:09:26.171Z,948.95
2018-11-21T09:11:52.477Z,948.84
2018-11-21T09:14:18.814Z,948.86
2018-11-21T09:16:45.189Z,948.82
2018-11-21T09:19:11.521Z,948.89
2018-11-21T09:21:37.869Z,948.87
2018-11-21T09:24:04.221Z,948.92
2018-11-21T09:26:30.586Z,948.89
2018-11-21T09:28:56.919Z,948.90
2018-11-21T09:31:23.239Z,948.95
2018-11-21T09:33:49.573Z,948.96
2018-11-21T09:36:15.910Z,948.95
2018-11-21T09:38:42.214Z,948.97
2018-11-21T09:41:08.554Z,948.94
2018-11-21T09:43:34.858Z,948.99
2018-11-21T09:46:01.161Z,948.91
2018-11-21T09:48:27.493Z,948.93
2018-11-21T09:50:53.887Z,948.91
2018-11-21T09:53:20.272Z,948.95
2018-11-21T09:55:46.615Z,948.88
2018-11-21T09:58:12.993Z,948.91
2018-11-21T10:00:39.424Z,948.88
2018-11-21T10:03:05.762Z,948.85
2018-11-21T10:05:32.086Z,948.84
2018-11-21T10:07:58.437Z,948.86
2018-11-21T10:10:24.755Z,948.83
2018-11-21T10:12:51.085Z,948.90
2018-11-21T10:15:17.395Z,948.84
2018-11-21T10:17:43.771Z,948.84
2018-11-21T10:20:11.404Z,948.78
2018-11-21T10:22:36.395Z,948.82
2018-11-21T10:25:02.730Z,948.88
2018-11-21T10:27:29.044Z,948.83
2018-11-21T10:29:55.453Z,948.82
2018-11-21T10:32:21.776Z,948.81
2018-11-21T10:34:48.120Z,948.80
2018-11-21T10:37:14.455Z,948.86
2018-11-21T10:39:40.868Z,948.82
2018-11-21T10:42:07.199Z,948.80
2018-11-21T10:44:35.790Z,948.83
2018-11-21T10:47:05.170Z,948.73
2018-11-21T10:49:31.485Z,948.82
2018-11-21T10:51:57.870Z,948.63
2018-11-21T10:54:24.192Z,948.76
2018-11-21T10:56:50.511Z,948.78
2018-11-21T10:59:16.829Z,948.77
2018-11-21T11:01:43.333Z,948.78
2018-11-21T11:04:09.682Z,948.78
2018-11-21T11:06:36.030Z,948.78
2018-11-21T11:09:02.447Z,948.78
2018-11-21T11:11:28.921Z,948.75
2018-11-21T11:13:55.276Z,948.72
2018-11-21T11:16:21.616Z,948.74
2018-11-21T11:18:47.995Z,948.74
2018-11-21T11:21:14.339Z,948.76
2018-11-21T11:23:40.649Z,948.70
2018-11-21T11:26:06.954Z,948.65
2018-11-21T11:28:33.255Z,948.65
2018-11-21T11:30:59.586Z,948.65
2018-11-21T11:33:25.920Z,948.60
2018-11-21T11:35:52.253Z,948.66
2018-11-21T11:38:18.591Z,948.62
2018-11-21T11:40:44.906Z,948.61
2018-11-21T11:43:11.204Z,948.66
2018-11-21T11:45:37.512Z,948.65
2018-11-21T11:48:03.842Z,948.68
2018-11-21T11:50:30.229Z,948.68
2018-11-21T11:52:56.600Z,948.62
2018-11-21T11:55:22.941Z,948.64
2018-11-21T11:57:49.277Z,948.65
2018-11-21T12:00:15.634Z,948.59
2018-11-21T12:02:41.937Z,948.66
2018-11-21T12:05:08.247Z,948.61
2018-11-21T12:07:34.640Z,948.67
2018-11-21T12:10:01.028Z,948.67
2018-11-21T12:12:27.374Z,948.76
2018-11-21T12:14:53.784Z,948.71
2018-11-21T12:17:21.766Z,948.76
2018-11-21T12:19:46.544Z,948.74
2018-11-21T12:22:12.836Z,948.84
2018-11-21T12:24:39.277Z,948.78
2018-11-21T12:27:05.709Z,948.80
2018-11-21T12:29:36.102Z,948.83
2018-11-21T12:32:01.605Z,948.83
2018-11-21T12:34:28.091Z,948.77
2018-11-21T12:36:54.426Z,948.82
2018-11-21T12:39:20.876Z,948.81
2018-11-21T12:41:47.368Z,948.79
2018-11-21T12:44:13.661Z,948.82
2018-11-21T12:46:40.054Z,948.84
2018-11-21T12:49:06.466Z,948.89
2018-11-21T12:51:32.800Z,948.90
2018-11-21T12:53:59.135Z,948.95
2018-11-21T12:56:25.496Z,948.87
2018-11-21T12:58:51.925Z,948.85
2018-11-21T13:01:18.522Z,948.87
2018-11-21T13:03:44.842Z,948.93
2018-11-21T13:06:11.275Z,949.02
2018-11-21T13:08:37.649Z,949.06
2018-11-21T13:11:04.132Z,949.05
2018-11-21T13:13:30.599Z,949.03
2018-11-21T13:15:57.098Z,949.05
2018-11-21T13:18:23.588Z,949.05
2018-11-21T13:20:49.974Z,949.00
2018-11-21T13:23:16.507Z,949.10
2018-11-21T13:25:42.931Z,949.06
2018-11-21T13:28:09.249Z,949.05
2018-11-21T13:30:35.663Z,949.14
2018-11-21T13:33:02.034Z,949.13
2018-11-21T13:35:28.523Z,949.10
2018-11-21T13:37:54.873Z,949.15
2018-11-21T13:40:22.888Z,949.17
2018-11-21T13:42:49.248Z,949.14
2018-11-21T13:45:15.706Z,949.13
2018-11-21T13:47:42.131Z,949.21
2018-11-21T13:50:08.618Z,949.19
2018-11-21T13:52:34.950Z,948.95
2018-11-21T13:55:01.288Z,949.12
2018-11-21T13:57:27.639Z,949.18
2018-11-21T13:59:53.913Z,949.17
2018-11-21T14:02:20.277Z,949.17
2018-11-21T14:04:46.587Z,949.16
2018-11-21T14:07:12.981Z,949.20
2018-11-21T14:09:39.431Z,949.29
2018-11-21T14:12:05.736Z,949.27
2018-11-21T14:14:32.039Z,949.18
2018-11-21T14:16:58.396Z,949.26
2018-11-21T14:19:24.714Z,949.31
2018-11-21T14:21:55.813Z,949.30
2018-11-21T14:24:17.420Z,949.24
2018-11-21T14:26:43.761Z,949.31
2018-11-21T14:29:10.140Z,949.37
2018-11-21T14:31:36.430Z,949.39
2018-11-21T14:34:02.848Z,949.40
2018-11-21T14:36:29.140Z,949.44
2018-11-21T14:38:55.536Z,949.41
2018-11-21T14:41:21.842Z,949.39
2018-11-21T14:43:48.164Z,949.44
2018-11-21T14:46:14.471Z,949.51
2018-11-21T14:48:40.856Z,949.47
2018-11-21T14:51:07.152Z,949.56
2018-11-21T14:53:33.481Z,949.55
2018-11-21T14:55:59.824Z,949.52
2018-11-21T14:58:26.146Z,949.50
2018-11-21T15:00:52.477Z,949.54
2018-11-21T15:03:18.813Z,949.57
2018-11-21T15:05:45.117Z,949.54
2018-11-21T15:08:11.423Z,949.64
2018-11-21T15:10:37.735Z,949.62
2018-11-21T15:13:04.042Z,949.64
2018-11-21T15:15:30.448Z,949.72
2018-11-21T15:17:56.777Z,949.74
2018-11-21T15:20:23.154Z,949.78
2018-11-21T15:22:49.511Z,949.89
2018-11-21T15:25:15.781Z,949.96
2018-11-21T15:27:42.174Z,949.93
2018-11-21T15:30:08.536Z,949.90
2018-11-21T15:32:34.858Z,949.93
2018-11-21T15:35:01.191Z,949.94
2018-11-21T15:37:27.535Z,949.91
2018-11-21T15:39:54.004Z,950.04
2018-11-21T15:42:22.795Z,950.11
2018-11-21T15:44:49.211Z,950.06
2018-11-21T15:47:15.570Z,950.12
2018-11-21T15:49:41.862Z,950.23
2018-11-21T15:52:08.192Z,950.25
2018-11-21T15:54:34.636Z,950.34
2018-11-21T15:57:01.049Z,950.37
2018-11-21T15:59:27.417Z,950.38
2018-11-21T16:01:53.748Z,950.37
2018-11-21T16:04:20.524Z,950.40
2018-11-21T16:06:46.930Z,950.46
2018-11-21T16:09:13.282Z,950.52
2018-11-21T16:11:39.683Z,950.50
2018-11-21T16:14:06.067Z,950.44
2018-11-21T16:16:32.525Z,950.53
2018-11-21T16:18:58.854Z,950.62
2018-11-21T16:21:25.277Z,950.62
2018-11-21T16:23:51.612Z,950.65
2018-11-21T16:26:17.992Z,950.66
2018-11-21T16:28:44.333Z,950.65
2018-11-21T16:31:10.656Z,950.66
2018-11-21T16:33:37.032Z,950.69
2018-11-21T16:36:03.363Z,950.79
2018-11-21T16:38:29.683Z,950.86
2018-11-21T16:40:56.054Z,950.87
2018-11-21T16:43:22.397Z,950.85
2018-11-21T16:45:48.765Z,950.87
2018-11-21T16:48:15.071Z,950.89
2018-11-21T16:50:41.406Z,950.95
2018-11-21T16:53:07.732Z,951.03
2018-11-21T16:55:34.074Z,951.12
2018-11-21T16:58:00.418Z,951.12
2018-11-21T17:00:26.812Z,951.22
2018-11-21T17:02:53.126Z,951.22
2018-11-21T17:05:19.449Z,951.32
2018-11-21T17:07:45.765Z,951.33
2018-11-21T17:10:12.129Z,951.32
2018-11-21T17:12:38.550Z,951.41
2018-11-21T17:15:04.862Z,951.44
2018-11-21T17:17:31.228Z,951.45
2018-11-21T17:19:57.549Z,951.55
2018-11-21T17:22:23.868Z,951.44
2018-11-21T17:24:50.180Z,951.59
2018-11-21T17:27:16.626Z,951.58
2018-11-21T17:29:53.646Z,951.59
2018-11-21T17:32:09.165Z,951.63
2018-11-21T17:34:35.495Z,951.71
2018-11-21T17:37:01.832Z,951.75
2018-11-21T17:39:28.165Z,951.75
2018-11-21T17:41:54.523Z,951.81
2018-11-21T17:44:20.851Z,951.79
2018-11-21T17:46:47.176Z,951.83
2018-11-21T17:49:13.515Z,951.84
2018-11-21T17:51:39.820Z,951.86
2018-11-21T17:54:06.165Z,951.91
2018-11-21T17:56:32.468Z,951.92
2018-11-21T17:58:58.834Z,951.91
2018-11-21T18:01:25.128Z,951.91
2018-11-21T18:03:51.480Z,951.99
2018-11-21T18:06:17.804Z,952.01
2018-11-21T18:08:44.133Z,952.11
2018-11-21T18:11:10.435Z,952.09
2018-11-21T18:13:36.738Z,952.16
2018-11-21T18:16:03.051Z,952.19
2018-11-21T18:18:29.396Z,952.20
2018-11-21T18:20:55.722Z,952.25
2018-11-21T18:23:22.027Z,952.28
2018-11-21T18:25:48.365Z,952.29
2018-11-21T18:28:14.657Z,952.33
2018-11-21T18:30:40.999Z,952.35
2018-11-21T18:33:07.367Z,952.30
2018-11-21T18:35:35.664Z,952.35
2018-11-21T18:38:00.216Z,952.32
2018-11-21T18:40:26.312Z,952.35
2018-11-21T18:42:52.669Z,952.43
2018-11-21T18:45:18.996Z,952.41
2018-11-21T18:47:45.392Z,952.42
2018-11-21T18:50:11.727Z,952.53
2018-11-21T18:52:38.030Z,952.52
2018-11-21T18:55:04.382Z,952.54
2018-11-21T18:57:30.718Z,952.56
2018-11-21T18:59:57.054Z,952.58
2018-11-21T19:02:23.381Z,952.59
2018-11-21T19:04:49.688Z,952.67
2018-11-21T19:07:16.042Z,952.66
2018-11-21T19:09:42.465Z,952.62
2018-11-21T19:12:08.776Z,952.66
2018-11-21T19:14:35.160Z,952.74
2018-11-21T19:17:01.565Z,952.71
2018-11-21T19:19:27.791Z,952.72
2018-11-21T19:21:54.131Z,952.77
2018-11-21T19:24:20.459Z,952.74
2018-11-21T19:26:46.789Z,952.75
2018-11-21T19:29:13.123Z,952.74
2018-11-21T19:31:39.469Z,952.78
2018-11-21T19:34:05.836Z,952.77
2018-11-21T19:36:32.178Z,952.79
2018-11-21T19:38:58.543Z,952.83
2018-11-21T19:41:24.878Z,952.80
2018-11-21T19:43:51.228Z,952.86
2018-11-21T19:46:17.529Z,952.84
2018-11-21T19:48:43.852Z,952.89
2018-11-21T19:51:10.145Z,952.90
2018-11-21T19:53:36.578Z,952.94
2018-11-21T19:56:02.898Z,952.97
2018-11-21T19:58:29.241Z,953.08
2018-11-21T20:00:55.578Z,953.02
2018-11-21T20:03:21.926Z,953.00
2018-11-21T20:05:48.276Z,952.97
2018-11-21T20:08:14.718Z,953.07
2018-11-21T20:10:41.021Z,953.00
2018-11-21T20:13:07.327Z,953.00
2018-11-21T20:15:33.648Z,953.12
2018-11-21T20:17:59.952Z,953.14
2018-11-21T20:20:26.280Z,953.13
2018-11-21T20:22:52.609Z,953.12
2018-11-21T20:25:18.914Z,953.14
2018-11-21T20:27:45.331Z,953.11
2018-11-21T20:30:11.589Z,953.12
2018-11-21T20:32:37.953Z,953.12
2018-11-21T20:35:07.825Z,953.08
2018-11-21T20:37:30.614Z,953.10
2018-11-21T20:39:56.929Z,953.14
2018-11-21T20:42:23.260Z,953.18
2018-11-21T20:44:49.580Z,953.19
2018-11-21T20:47:15.915Z,953.19
2018-11-21T20:49:42.234Z,953.21
2018-11-21T20:52:08.545Z,953.22
2018-11-21T20:54:34.857Z,953.22
2018-11-21T20:57:01.171Z,953.27
2018-11-21T20:59:27.502Z,953.32
2018-11-21T21:01:53.814Z,953.37
2018-11-21T21:04:20.117Z,953.35
2018-11-21T21:06:46.443Z,953.33
2018-11-21T21:09:12.748Z,953.37
2018-11-21T21:11:39.088Z,953.35
2018-11-21T21:14:05.454Z,953.45
2018-11-21T21:16:31.783Z,953.41
2018-11-21T21:18:58.186Z,953.39
2018-11-21T21:21:24.528Z,953.42
2018-11-21T21:23:50.890Z,953.49
2018-11-21T21:26:17.193Z,953.53
2018-11-21T21:28:43.540Z,953.55
2018-11-21T21:31:09.876Z,953.59
2018-11-21T21:33:36.193Z,953.65
2018-11-21T21:36:02.527Z,953.68
2018-11-21T21:38:28.829Z,953.63
2018-11-21T21:40:55.155Z,953.77
2018-11-21T21:43:21.479Z,953.72
2018-11-21T21:45:47.863Z,953.64
2018-11-21T21:48:14.198Z,953.79
2018-11-21T21:50:40.564Z,953.84
2018-11-21T21:53:06.883Z,953.83
2018-11-21T21:55:33.238Z,953.90
2018-11-21T21:57:59.553Z,953.89
2018-11-21T22:00:25.856Z,953.92
2018-11-21T22:02:52.194Z,953.96
2018-11-21T22:05:18.531Z,953.97
2018-11-21T22:07:44.836Z,953.96
2018-11-21T22:10:11.149Z,954.04
2018-11-21T22:12:37.519Z,954.04
2018-11-21T22:15:03.827Z,954.05
2018-11-21T22:17:30.156Z,954.09
2018-11-21T22:19:56.511Z,954.04
2018-11-21T22:22:22.816Z,954.12
2018-11-21T22:24:49.283Z,954.14
2018-11-21T22:27:15.647Z,954.09
2018-11-21T22:29:41.948Z,954.10
2018-11-21T22:32:08.276Z,954.05
2018-11-21T22:34:34.616Z,954.11
2018-11-21T22:37:00.947Z,954.09
2018-11-21T22:39:27.272Z,954.09
2018-11-21T22:41:53.611Z,954.11
2018-11-21T22:44:19.933Z,954.06
2018-11-21T22:46:46.333Z,954.01
2018-11-21T22:49:12.624Z,954.09
2018-11-21T22:51:38.922Z,954.12
2018-11-21T22:54:05.261Z,954.09
2018-11-21T22:56:31.582Z,954.05
2018-11-21T22:58:57.908Z,954.05
2018-11-21T23:01:24.210Z,954.05
2018-11-21T23:03:50.505Z,953.97
2018-11-21T23:06:16.810Z,953.97
2018-11-21T23:08:48.150Z,954.03
2018-11-21T23:11:09.434Z,954.02
2018-11-21T23:13:35.791Z,954.00
2018-11-21T23:16:02.119Z,954.01
2018-11-21T23:18:28.428Z,954.10
2018-11-21T23:20:54.733Z,954.05
2018-11-21T23:23:21.061Z,954.07
2018-11-21T23:25:47.378Z,954.01
2018-11-21T23:28:13.683Z,954.04
2018-11-21T23:30:39.984Z,954.03
2018-11-21T23:33:06.293Z,954.08
2018-11-21T23:35:32.594Z,954.07
2018-11-21T23:37:58.903Z,954.15
2018-11-21T23:40:25.194Z,954.09
2018-11-21T23:42:51.495Z,954.14
2018-11-21T23:45:17.815Z,954.14
2018-11-21T23:47:44.145Z,954.13
2018-11-21T23:50:10.475Z,954.11
2018-11-21T23:52:36.779Z,954.03
2018-11-21T23:55:03.088Z,954.07
2018-11-21T23:57:29.393Z,954.17
2018-11-21T23:59:55.723Z,954.13
